createdAt,value
2017-06-27T00:00:28.619Z,14.31
2017-06-27T00:01:28.600Z,14.21
2017-06-27T00:02:28.580Z,14.2
2017-06-27T00:03:28.553Z,14.27
2017-06-27T00:04:28.536Z,14.2
2017-06-27T00:05:28.515Z,14.2
2017-06-27T00:06:28.497Z,14.24
2017-06-27T00:07:28.470Z,14.17
2017-06-27T00:08:28.451Z,14.23
2017-06-27T00:09:28.480Z,14.13
2017-06-27T00:10:28.405Z,14.09
2017-06-27T00:11:28.391Z,14.12
2017-06-27T00:12:28.368Z,14.16
2017-06-27T00:13:28.374Z,14.23
2017-06-27T00:14:28.320Z,14.11
2017-06-27T00:15:28.302Z,14.11
2017-06-27T00:16:28.284Z,14.08
2017-06-27T00:17:28.264Z,14.02
2017-06-27T00:18:28.288Z,14.04
2017-06-27T00:19:28.224Z,14.02
2017-06-27T00:20:28.196Z,14.01
2017-06-27T00:21:28.182Z,14.13
2017-06-27T00:22:28.154Z,14.09
2017-06-27T00:23:28.132Z,14.05
2017-06-27T00:24:28.109Z,14.01
2017-06-27T00:25:28.093Z,14.06
2017-06-27T00:26:28.080Z,14.01
2017-06-27T00:27:27.756Z,14.11
2017-06-27T00:28:28.023Z,14.08
2017-06-27T00:29:27.713Z,14.11
2017-06-27T00:30:27.986Z,14.08
2017-06-27T00:31:28.018Z,14.08
2017-06-27T00:32:27.946Z,14.11
2017-06-27T00:33:27.916Z,14.09
2017-06-27T00:34:27.892Z,14.06
2017-06-27T00:35:27.912Z,14.09
2017-06-27T00:36:27.859Z,14.2
2017-06-27T00:37:27.834Z,14.06
2017-06-27T00:38:27.508Z,14.13
2017-06-27T00:39:27.795Z,14.21
2017-06-27T00:40:27.772Z,14.23
2017-06-27T00:41:27.749Z,14.23
2017-06-27T00:42:27.728Z,14.12
2017-06-27T00:43:27.707Z,14.05
2017-06-27T00:44:27.679Z,13.99
2017-06-27T00:45:27.662Z,14.05
2017-06-27T00:46:27.643Z,13.96
2017-06-27T00:47:27.322Z,13.94
2017-06-27T00:48:27.644Z,13.98
2017-06-27T00:49:27.584Z,13.81
2017-06-27T00:50:27.564Z,13.93
2017-06-27T00:51:27.534Z,13.88
2017-06-27T00:52:27.511Z,13.84
2017-06-27T00:53:27.492Z,13.88
2017-06-27T00:54:27.525Z,13.87
2017-06-27T00:55:27.456Z,13.88
2017-06-27T00:56:27.129Z,13.83
2017-06-27T00:57:27.418Z,13.81
2017-06-27T00:58:27.382Z,13.83
2017-06-27T00:59:27.361Z,13.87
2017-06-27T01:00:27.355Z,13.91
2017-06-27T01:01:27.323Z,13.96
2017-06-27T01:02:27.308Z,13.87
2017-06-27T01:03:27.296Z,13.94
2017-06-27T01:04:27.268Z,13.86
2017-06-27T01:05:27.237Z,13.88
2017-06-27T01:06:27.226Z,13.81
2017-06-27T01:07:27.195Z,13.76
2017-06-27T01:08:27.175Z,13.72
2017-06-27T01:09:27.150Z,13.62
2017-06-27T01:10:27.139Z,13.71
2017-06-27T01:11:27.114Z,13.65
2017-06-27T01:12:27.086Z,13.66
2017-06-27T01:13:27.065Z,13.59
2017-06-27T01:14:27.044Z,13.61
2017-06-27T01:15:27.025Z,13.47
2017-06-27T01:16:26.708Z,13.61
2017-06-27T01:17:26.984Z,13.62
2017-06-27T01:18:26.960Z,13.48
2017-06-27T01:19:26.936Z,13.48
2017-06-27T01:20:26.915Z,13.51
2017-06-27T01:21:26.905Z,13.39
2017-06-27T01:22:26.578Z,13.47
2017-06-27T01:23:26.554Z,13.54
2017-06-27T01:24:26.836Z,13.43
2017-06-27T01:25:26.813Z,13.47
2017-06-27T01:26:26.788Z,13.5
2017-06-27T01:27:26.762Z,13.54
2017-06-27T01:28:26.743Z,13.65
2017-06-27T01:29:26.726Z,13.61
2017-06-27T01:30:26.709Z,13.51
2017-06-27T01:31:26.687Z,13.5
2017-06-27T01:32:26.660Z,13.47
2017-06-27T01:33:26.697Z,13.39
2017-06-27T01:34:26.614Z,13.25
2017-06-27T01:35:26.593Z,13.28
2017-06-27T01:36:26.575Z,13.27
2017-06-27T01:37:26.603Z,13.25
2017-06-27T01:38:26.274Z,13.19
2017-06-27T01:39:26.506Z,13.21
2017-06-27T01:40:26.488Z,13.17
2017-06-27T01:41:26.464Z,13.14
2017-06-27T01:42:26.460Z,13.13
2017-06-27T01:43:26.419Z,13.21
2017-06-27T01:44:26.410Z,13.09
2017-06-27T01:45:26.435Z,13.16
2017-06-27T01:46:26.356Z,13.07
2017-06-27T01:47:26.338Z,13.14
2017-06-27T01:48:26.320Z,13.14
2017-06-27T01:49:26.296Z,13.13
2017-06-27T01:50:26.517Z,13.22
2017-06-27T01:51:26.258Z,13.17
2017-06-27T01:52:26.240Z,13.17
2017-06-27T01:53:26.205Z,13.14
2017-06-27T01:54:26.190Z,13.21
2017-06-27T01:55:26.164Z,13.14
2017-06-27T01:56:26.147Z,13.14
2017-06-27T01:57:26.120Z,13.14
2017-06-27T01:58:26.099Z,13.14
2017-06-27T01:59:26.076Z,13.04
2017-06-27T02:00:26.055Z,13.06
2017-06-27T02:01:26.035Z,13.1
2017-06-27T02:02:26.018Z,13.04
2017-06-27T02:03:25.995Z,13.04
2017-06-27T02:04:25.974Z,13.03
2017-06-27T02:05:25.948Z,13.01
2017-06-27T02:06:25.930Z,13.07
2017-06-27T02:07:25.910Z,13.01
2017-06-27T02:08:25.888Z,13.03
2017-06-27T02:09:25.863Z,12.98
2017-06-27T02:10:25.840Z,13.01
2017-06-27T02:11:25.818Z,12.95
2017-06-27T02:12:25.798Z,12.98
2017-06-27T02:13:25.776Z,12.95
2017-06-27T02:14:25.759Z,12.99
2017-06-27T02:15:25.735Z,12.89
2017-06-27T02:16:25.709Z,12.99
2017-06-27T02:17:25.692Z,12.87
2017-06-27T02:18:25.370Z,12.91
2017-06-27T02:19:25.649Z,12.91
2017-06-27T02:20:25.626Z,12.91
2017-06-27T02:21:25.609Z,12.76
2017-06-27T02:22:25.590Z,12.74
2017-06-27T02:23:25.561Z,12.79
2017-06-27T02:24:25.542Z,12.71
2017-06-27T02:25:25.520Z,12.74
2017-06-27T02:26:25.495Z,12.71
2017-06-27T02:27:25.473Z,12.66
2017-06-27T02:28:25.460Z,12.69
2017-06-27T02:29:25.439Z,12.76
2017-06-27T02:30:25.410Z,12.77
2017-06-27T02:31:25.092Z,12.71
2017-06-27T02:32:25.420Z,12.66
2017-06-27T02:33:25.346Z,12.67
2017-06-27T02:34:25.323Z,12.73
2017-06-27T02:35:25.305Z,12.62
2017-06-27T02:36:25.285Z,12.67
2017-06-27T02:37:25.260Z,12.67
2017-06-27T02:38:25.244Z,12.7
2017-06-27T02:39:25.215Z,12.62
2017-06-27T02:40:25.192Z,12.58
2017-06-27T02:41:24.875Z,12.66
2017-06-27T02:42:25.154Z,12.55
2017-06-27T02:43:25.131Z,12.51
2017-06-27T02:44:25.103Z,12.49
2017-06-27T02:45:25.084Z,12.56
2017-06-27T02:46:25.111Z,12.54
2017-06-27T02:47:25.046Z,12.51
2017-06-27T02:48:24.720Z,12.54
2017-06-27T02:49:24.695Z,12.54
2017-06-27T02:50:24.979Z,12.46
2017-06-27T02:51:24.964Z,12.48
2017-06-27T02:52:24.934Z,12.49
2017-06-27T02:53:24.921Z,12.46
2017-06-27T02:54:24.889Z,12.52
2017-06-27T02:55:24.880Z,12.51
2017-06-27T02:56:24.844Z,12.46
2017-06-27T02:57:24.819Z,12.58
2017-06-27T02:58:24.801Z,12.58
2017-06-27T02:59:24.781Z,12.49
2017-06-27T03:00:24.763Z,12.49
2017-06-27T03:01:24.742Z,12.52
2017-06-27T03:02:24.723Z,12.55
2017-06-27T03:03:24.699Z,12.55
2017-06-27T03:04:24.678Z,12.51
2017-06-27T03:05:24.649Z,12.48
2017-06-27T03:06:24.629Z,12.58
2017-06-27T03:07:24.604Z,12.54
2017-06-27T03:08:24.581Z,12.59
2017-06-27T03:09:24.616Z,12.51
2017-06-27T03:10:24.540Z,12.56
2017-06-27T03:11:24.518Z,12.55
2017-06-27T03:12:24.500Z,12.58
2017-06-27T03:13:24.477Z,12.58
2017-06-27T03:14:24.459Z,12.61
2017-06-27T03:15:24.431Z,12.66
2017-06-27T03:16:24.409Z,12.62
2017-06-27T03:17:24.389Z,12.62
2017-06-27T03:18:24.415Z,12.62
2017-06-27T03:19:24.647Z,12.56
2017-06-27T03:20:24.031Z,12.61
2017-06-27T03:21:24.350Z,12.54
2017-06-27T03:22:24.283Z,12.61
2017-06-27T03:23:24.266Z,12.62
2017-06-27T03:24:23.933Z,12.58
2017-06-27T03:25:24.215Z,12.59
2017-06-27T03:26:24.200Z,12.54
2017-06-27T03:27:24.168Z,12.59
2017-06-27T03:28:24.151Z,12.61
2017-06-27T03:29:24.130Z,12.59
2017-06-27T03:30:24.107Z,12.62
2017-06-27T03:31:24.088Z,12.61
2017-06-27T03:32:24.064Z,12.66
2017-06-27T03:33:24.045Z,12.62
2017-06-27T03:34:23.718Z,12.61
2017-06-27T03:35:24.048Z,12.61
2017-06-27T03:36:23.980Z,12.69
2017-06-27T03:37:23.957Z,12.66
2017-06-27T03:38:23.633Z,12.66
2017-06-27T03:39:23.911Z,12.61
2017-06-27T03:40:23.891Z,12.66
2017-06-27T03:41:23.866Z,12.63
2017-06-27T03:42:23.848Z,12.69
2017-06-27T03:43:23.827Z,12.63
2017-06-27T03:44:23.806Z,12.63
2017-06-27T03:45:23.784Z,12.66
2017-06-27T03:46:23.767Z,12.62
2017-06-27T03:47:23.753Z,12.62
2017-06-27T03:48:23.721Z,12.67
2017-06-27T03:49:23.401Z,12.73
2017-06-27T03:50:23.676Z,12.76
2017-06-27T03:51:23.657Z,12.69
2017-06-27T03:52:23.630Z,12.76
2017-06-27T03:53:23.606Z,12.88
2017-06-27T03:54:23.595Z,12.88
2017-06-27T03:55:23.562Z,12.95
2017-06-27T03:56:23.543Z,13.12
2017-06-27T03:57:23.522Z,13.06
2017-06-27T03:58:23.499Z,13.14
2017-06-27T03:59:23.175Z,13.24
2017-06-27T04:00:23.517Z,13.27
2017-06-27T04:01:23.437Z,13.31
2017-06-27T04:02:23.417Z,13.35
2017-06-27T04:03:23.397Z,13.31
2017-06-27T04:04:23.375Z,13.27
2017-06-27T04:05:23.352Z,13.35
2017-06-27T04:06:23.345Z,13.29
2017-06-27T04:07:23.360Z,13.27
2017-06-27T04:08:22.988Z,13.25
2017-06-27T04:09:23.265Z,13.25
2017-06-27T04:10:23.250Z,13.24
2017-06-27T04:11:23.225Z,13.13
2017-06-27T04:12:23.204Z,13.16
2017-06-27T04:13:22.882Z,13.16
2017-06-27T04:14:22.859Z,13.21
2017-06-27T04:15:23.145Z,13.12
2017-06-27T04:16:23.118Z,13.13
2017-06-27T04:17:23.097Z,13.27
2017-06-27T04:18:23.075Z,13.28
2017-06-27T04:19:23.058Z,13.19
2017-06-27T04:20:23.036Z,13.36
2017-06-27T04:21:23.008Z,13.36
2017-06-27T04:22:23.004Z,13.38
2017-06-27T04:23:22.973Z,13.29
2017-06-27T04:24:22.945Z,13.38
2017-06-27T04:25:22.934Z,13.29
2017-06-27T04:26:22.907Z,13.28
2017-06-27T04:27:22.884Z,13.31
2017-06-27T04:28:22.866Z,13.27
2017-06-27T04:29:22.843Z,13.32
2017-06-27T04:30:22.826Z,13.31
2017-06-27T04:31:22.803Z,13.31
2017-06-27T04:32:22.777Z,13.25
2017-06-27T04:33:22.766Z,13.28
2017-06-27T04:34:22.741Z,13.27
2017-06-27T04:35:22.718Z,13.36
2017-06-27T04:36:22.696Z,13.39
2017-06-27T04:37:22.371Z,13.48
2017-06-27T04:38:22.346Z,13.53
2017-06-27T04:39:22.627Z,13.53
2017-06-27T04:40:22.612Z,13.46
2017-06-27T04:41:22.584Z,13.44
2017-06-27T04:42:22.565Z,13.5
2017-06-27T04:43:22.544Z,13.46
2017-06-27T04:44:22.528Z,13.51
2017-06-27T04:45:22.504Z,13.57
2017-06-27T04:46:22.480Z,13.48
2017-06-27T04:47:22.464Z,13.59
2017-06-27T04:48:22.490Z,13.59
2017-06-27T04:49:22.417Z,13.61
2017-06-27T04:50:22.396Z,13.62
2017-06-27T04:51:21.773Z,13.63
2017-06-27T04:52:22.051Z,13.61
2017-06-27T04:53:22.332Z,13.59
2017-06-27T04:54:22.317Z,13.61
2017-06-27T04:55:22.292Z,13.66
2017-06-27T04:56:22.271Z,13.63
2017-06-27T04:57:22.251Z,13.75
2017-06-27T04:58:22.232Z,13.71
2017-06-27T04:59:22.207Z,13.8
2017-06-27T05:00:22.189Z,13.79
2017-06-27T05:01:22.168Z,13.83
2017-06-27T05:02:22.143Z,13.96
2017-06-27T05:03:22.126Z,13.99
2017-06-27T05:04:22.100Z,14.01
2017-06-27T05:05:22.079Z,14.01
2017-06-27T05:06:22.054Z,14.04
2017-06-27T05:07:22.035Z,14.08
2017-06-27T05:08:22.012Z,14.19
2017-06-27T05:09:22.004Z,14.26
2017-06-27T05:10:21.663Z,14.24
2017-06-27T05:11:21.956Z,14.26
2017-06-27T05:12:21.933Z,14.21
2017-06-27T05:13:21.908Z,14.16
2017-06-27T05:14:21.886Z,14.26
2017-06-27T05:15:21.861Z,14.29
2017-06-27T05:16:21.854Z,14.29
2017-06-27T05:17:21.831Z,14.38
2017-06-27T05:18:21.503Z,14.39
2017-06-27T05:19:21.821Z,14.45
2017-06-27T05:20:21.811Z,14.38
2017-06-27T05:21:21.746Z,14.52
2017-06-27T05:22:21.724Z,14.69
2017-06-27T05:23:21.703Z,14.85
2017-06-27T05:24:21.682Z,15.03
2017-06-27T05:25:21.663Z,15.11
2017-06-27T05:26:21.639Z,15.13
2017-06-27T05:27:21.315Z,15.18
2017-06-27T05:28:21.602Z,15.33
2017-06-27T05:29:21.589Z,15.34
2017-06-27T05:30:21.565Z,15.43
2017-06-27T05:31:21.562Z,15.46
2017-06-27T05:32:21.528Z,15.55
2017-06-27T05:33:21.503Z,15.71
2017-06-27T05:34:21.484Z,15.8
2017-06-27T05:35:21.462Z,15.98
2017-06-27T05:36:21.439Z,15.95
2017-06-27T05:37:21.121Z,16.08
2017-06-27T05:38:21.399Z,16.14
2017-06-27T05:39:21.382Z,16.1
2017-06-27T05:40:21.068Z,16.1
2017-06-27T05:41:21.045Z,16.11
2017-06-27T05:42:21.324Z,15.93
2017-06-27T05:43:21.305Z,15.99
2017-06-27T05:44:21.328Z,16.22
2017-06-27T05:45:21.267Z,16.23
2017-06-27T05:46:21.253Z,16.29
2017-06-27T05:47:21.224Z,16.23
2017-06-27T05:48:21.201Z,16.25
2017-06-27T05:49:20.889Z,16.18
2017-06-27T05:50:21.168Z,16.26
2017-06-27T05:51:21.150Z,16.29
2017-06-27T05:52:21.131Z,16.26
2017-06-27T05:53:21.111Z,16.44
2017-06-27T05:54:21.086Z,16.55
2017-06-27T05:55:21.071Z,16.69
2017-06-27T05:56:21.055Z,16.63
2017-06-27T05:57:21.046Z,16.6
2017-06-27T05:58:21.019Z,16.62
2017-06-27T05:59:20.995Z,16.63
2017-06-27T06:00:20.976Z,16.57
2017-06-27T06:01:20.962Z,16.55
2017-06-27T06:02:20.947Z,16.44
2017-06-27T06:03:20.924Z,16.62
2017-06-27T06:04:20.902Z,16.67
2017-06-27T06:05:20.893Z,16.65
2017-06-27T06:06:20.864Z,16.65
2017-06-27T06:07:20.843Z,16.65
2017-06-27T06:08:20.827Z,16.6
2017-06-27T06:09:20.802Z,16.57
2017-06-27T06:10:20.842Z,16.47
2017-06-27T06:11:20.764Z,16.47
2017-06-27T06:12:20.794Z,16.44
2017-06-27T06:13:20.731Z,16.41
2017-06-27T06:14:20.706Z,16.44
2017-06-27T06:15:21.594Z,16.52
2017-06-27T06:16:20.671Z,16.47
2017-06-27T06:17:20.654Z,16.37
2017-06-27T06:18:20.634Z,16.37
2017-06-27T06:19:20.620Z,16.33
2017-06-27T06:20:20.590Z,16.3
2017-06-27T06:21:20.572Z,16.32
2017-06-27T06:22:20.553Z,16.36
2017-06-27T06:23:20.537Z,16.32
2017-06-27T06:24:20.523Z,16.59
2017-06-27T06:25:20.496Z,16.57
2017-06-27T06:26:20.481Z,16.6
2017-06-27T06:27:20.464Z,16.59
2017-06-27T06:28:20.438Z,16.57
2017-06-27T06:29:20.427Z,16.6
2017-06-27T06:30:20.096Z,16.65
2017-06-27T06:31:20.377Z,16.91
2017-06-27T06:32:20.368Z,16.88
2017-06-27T06:33:20.043Z,16.9
2017-06-27T06:34:20.318Z,17
2017-06-27T06:35:20.311Z,17.09
2017-06-27T06:36:20.314Z,17.21
2017-06-27T06:37:20.262Z,17.25
2017-06-27T06:38:20.248Z,17.27
2017-06-27T06:39:19.975Z,17.33
2017-06-27T06:40:20.262Z,17.28
2017-06-27T06:41:20.194Z,17.4
2017-06-27T06:42:20.172Z,17.3
2017-06-27T06:43:20.153Z,17.36
2017-06-27T06:44:20.128Z,17.43
2017-06-27T06:45:19.814Z,17.77
2017-06-27T06:46:20.149Z,17.94
2017-06-27T06:47:20.112Z,17.86
2017-06-27T06:48:20.058Z,18.01
2017-06-27T06:49:20.052Z,18.1
2017-06-27T06:50:20.176Z,18.23
2017-06-27T06:51:19.999Z,18.44
2017-06-27T06:52:19.985Z,18.53
2017-06-27T06:53:19.978Z,18.59
2017-06-27T06:54:19.949Z,18.6
2017-06-27T06:55:19.991Z,18.71
2017-06-27T06:56:19.920Z,18.75
2017-06-27T06:57:19.592Z,18.64
2017-06-27T06:58:19.575Z,18.66
2017-06-27T06:59:19.860Z,18.5
2017-06-27T07:00:19.841Z,18.29
2017-06-27T07:01:19.824Z,18.23
2017-06-27T07:02:19.804Z,18.07
2017-06-27T07:03:19.788Z,17.98
2017-06-27T07:04:19.768Z,17.89
2017-06-27T07:05:19.451Z,17.83
2017-06-27T07:06:19.779Z,17.86
2017-06-27T07:07:19.415Z,17.66
2017-06-27T07:08:19.692Z,17.58
2017-06-27T07:09:19.671Z,17.55
2017-06-27T07:10:19.656Z,17.46
2017-06-27T07:11:19.644Z,17.3
2017-06-27T07:12:19.623Z,17.43
2017-06-27T07:13:19.601Z,17.4
2017-06-27T07:14:19.586Z,17.45
2017-06-27T07:15:19.564Z,17.51
2017-06-27T07:16:19.546Z,17.53
2017-06-27T07:17:19.241Z,17.54
2017-06-27T07:18:19.499Z,17.55
2017-06-27T07:19:19.188Z,17.58
2017-06-27T07:20:19.479Z,17.49
2017-06-27T07:21:19.447Z,17.42
2017-06-27T07:22:19.736Z,17.39
2017-06-27T07:23:19.418Z,17.46
2017-06-27T07:24:19.397Z,17.58
2017-06-27T07:25:19.122Z,17.62
2017-06-27T07:26:19.054Z,17.71
2017-06-27T07:27:19.345Z,17.77
2017-06-27T07:28:19.323Z,17.74
2017-06-27T07:29:19.003Z,17.65
2017-06-27T07:30:19.439Z,17.76
2017-06-27T07:31:19.266Z,17.7
2017-06-27T07:32:19.298Z,17.8
2017-06-27T07:33:19.230Z,17.79
2017-06-27T07:34:19.231Z,17.77
2017-06-27T07:35:19.189Z,17.84
2017-06-27T07:36:19.170Z,17.74
2017-06-27T07:37:19.147Z,17.86
2017-06-27T07:38:19.174Z,17.96
2017-06-27T07:39:19.135Z,18.02
2017-06-27T07:40:18.793Z,18.16
2017-06-27T07:41:19.077Z,18.28
2017-06-27T07:42:18.758Z,18.41
2017-06-27T07:43:19.038Z,18.49
2017-06-27T07:44:18.721Z,18.56
2017-06-27T07:45:19.003Z,18.69
2017-06-27T07:46:18.986Z,18.76
2017-06-27T07:47:18.978Z,18.84
2017-06-27T07:48:18.948Z,19.01
2017-06-27T07:49:18.927Z,18.99
2017-06-27T07:50:18.960Z,19.06
2017-06-27T07:51:18.890Z,18.78
2017-06-27T07:52:18.576Z,18.76
2017-06-27T07:53:18.863Z,18.71
2017-06-27T07:54:18.846Z,18.62
2017-06-27T07:55:18.872Z,18.68
2017-06-27T07:56:18.804Z,18.59
2017-06-27T07:57:18.788Z,18.62
2017-06-27T07:58:18.823Z,18.53
2017-06-27T07:59:18.746Z,18.56
2017-06-27T08:00:18.781Z,18.47
2017-06-27T08:01:18.713Z,18.28
2017-06-27T08:02:18.691Z,18.25
2017-06-27T08:03:18.676Z,18.2
2017-06-27T08:04:18.665Z,18.13
2017-06-27T08:05:18.646Z,18.17
2017-06-27T08:06:18.622Z,18.09
2017-06-27T08:07:18.600Z,18.16
2017-06-27T08:08:18.587Z,18.17
2017-06-27T08:09:18.568Z,18.29
2017-06-27T08:10:18.545Z,18.31
2017-06-27T08:11:18.524Z,18.34
2017-06-27T08:12:18.511Z,18.54
2017-06-27T08:13:18.487Z,18.6
2017-06-27T08:14:18.468Z,18.6
2017-06-27T08:15:18.450Z,18.66
2017-06-27T08:16:18.488Z,18.6
2017-06-27T08:17:18.465Z,18.72
2017-06-27T08:18:18.393Z,18.72
2017-06-27T08:19:18.386Z,18.86
2017-06-27T08:20:18.361Z,18.99
2017-06-27T08:21:18.351Z,19.25
2017-06-27T08:22:18.579Z,19.13
2017-06-27T08:23:18.303Z,19.25
2017-06-27T08:24:18.293Z,19.17
2017-06-27T08:25:18.273Z,19.1
2017-06-27T08:26:18.254Z,18.99
2017-06-27T08:27:18.240Z,18.9
2017-06-27T08:28:18.227Z,18.86
2017-06-27T08:29:17.895Z,18.84
2017-06-27T08:30:18.177Z,18.87
2017-06-27T08:31:18.160Z,18.9
2017-06-27T08:32:18.142Z,19.05
2017-06-27T08:33:18.125Z,19.16
2017-06-27T08:34:18.160Z,19.23
2017-06-27T08:35:18.090Z,19.42
2017-06-27T08:36:18.073Z,19.57
2017-06-27T08:37:18.107Z,19.58
2017-06-27T08:38:17.751Z,19.62
2017-06-27T08:39:18.026Z,19.6
2017-06-27T08:40:18.057Z,19.6
2017-06-27T08:41:17.982Z,19.42
2017-06-27T08:42:17.962Z,19.32
2017-06-27T08:43:17.643Z,19.35
2017-06-27T08:44:17.939Z,19.35
2017-06-27T08:45:17.914Z,19.3
2017-06-27T08:46:17.896Z,19.28
2017-06-27T08:47:17.572Z,19.28
2017-06-27T08:48:17.856Z,19.17
2017-06-27T08:49:18.449Z,19.3
2017-06-27T08:50:17.824Z,19.42
2017-06-27T08:51:17.809Z,19.76
2017-06-27T08:52:17.788Z,19.8
2017-06-27T08:53:17.824Z,19.97
2017-06-27T08:54:17.755Z,19.98
2017-06-27T08:55:17.734Z,19.92
2017-06-27T08:56:17.719Z,20.02
2017-06-27T08:57:17.702Z,20.17
2017-06-27T08:58:17.688Z,20.33
2017-06-27T08:59:17.667Z,20.25
2017-06-27T09:00:17.694Z,20.33
2017-06-27T09:01:17.635Z,20.22
2017-06-27T09:02:17.315Z,20.2
2017-06-27T09:03:17.597Z,20.04
2017-06-27T09:04:17.587Z,20.01
2017-06-27T09:05:17.561Z,20.1
2017-06-27T09:06:17.553Z,19.98
2017-06-27T09:07:17.232Z,19.95
2017-06-27T09:08:17.512Z,19.85
2017-06-27T09:09:17.503Z,19.79
2017-06-27T09:10:17.530Z,19.75
2017-06-27T09:11:17.463Z,19.7
2017-06-27T09:12:17.454Z,19.62
2017-06-27T09:13:17.424Z,19.64
2017-06-27T09:14:17.410Z,19.61
2017-06-27T09:15:17.394Z,19.57
2017-06-27T09:16:17.370Z,19.61
2017-06-27T09:17:17.373Z,19.78
2017-06-27T09:18:17.338Z,19.7
2017-06-27T09:19:17.322Z,19.58
2017-06-27T09:20:17.304Z,19.58
2017-06-27T09:21:16.989Z,19.55
2017-06-27T09:22:17.278Z,19.5
2017-06-27T09:23:17.262Z,19.45
2017-06-27T09:24:17.238Z,19.42
2017-06-27T09:25:17.211Z,19.45
2017-06-27T09:26:16.894Z,19.55
2017-06-27T09:27:46.393Z,19.49
2017-06-27T09:28:17.212Z,19.4
2017-06-27T09:29:17.141Z,19.34
2017-06-27T09:30:17.126Z,19.31
2017-06-27T09:31:17.115Z,19.32
2017-06-27T09:32:17.085Z,19.47
2017-06-27T09:34:17.050Z,19.57
2017-06-27T09:35:17.033Z,19.65
2017-06-27T09:36:17.018Z,19.62
2017-06-27T09:37:17.002Z,19.6
2017-06-27T09:38:16.976Z,19.75
2017-06-27T09:39:16.964Z,19.68
2017-06-27T09:40:16.941Z,19.67
2017-06-27T09:41:16.920Z,19.75
2017-06-27T09:42:16.918Z,19.79
2017-06-27T09:43:16.893Z,19.61
2017-06-27T09:44:16.870Z,19.65
2017-06-27T09:45:16.846Z,19.58
2017-06-27T09:46:16.834Z,19.57
2017-06-27T09:47:16.526Z,19.55
2017-06-27T09:48:16.793Z,19.6
2017-06-27T09:49:16.784Z,19.62
2017-06-27T09:50:16.771Z,19.64
2017-06-27T09:51:16.738Z,19.67
2017-06-27T09:52:16.726Z,19.8
2017-06-27T09:53:16.708Z,19.85
2017-06-27T09:54:16.388Z,19.92
2017-06-27T09:55:16.371Z,19.83
2017-06-27T09:56:16.657Z,19.79
2017-06-27T09:57:16.340Z,19.76
2017-06-27T09:58:16.619Z,19.79
2017-06-27T09:59:16.594Z,19.8
2017-06-27T10:00:16.583Z,19.78
2017-06-27T10:01:16.669Z,19.82
2017-06-27T10:02:16.545Z,19.82
2017-06-27T10:03:16.529Z,19.82
2017-06-27T10:04:16.512Z,19.8
2017-06-27T10:05:15.897Z,19.82
2017-06-27T10:06:16.499Z,19.87
2017-06-27T10:07:16.456Z,19.79
2017-06-27T10:08:16.438Z,19.86
2017-06-27T10:09:16.426Z,19.86
2017-06-27T10:10:16.411Z,19.82
2017-06-27T10:11:16.395Z,19.68
2017-06-27T10:12:16.366Z,19.7
2017-06-27T10:13:16.100Z,19.75
2017-06-27T10:14:16.340Z,19.79
2017-06-27T10:15:16.313Z,19.86
2017-06-27T10:16:16.301Z,19.86
2017-06-27T10:17:16.274Z,19.92
2017-06-27T10:18:15.953Z,19.92
2017-06-27T10:19:16.244Z,20
2017-06-27T10:20:16.232Z,19.94
2017-06-27T10:21:16.259Z,20.04
2017-06-27T10:22:16.190Z,19.95
2017-06-27T10:23:16.169Z,19.97
2017-06-27T10:24:16.151Z,20.12
2017-06-27T10:25:16.145Z,20.16
2017-06-27T10:26:16.120Z,20.25
2017-06-27T10:27:16.106Z,20.42
2017-06-27T10:28:16.078Z,20.53
2017-06-27T10:29:16.065Z,20.61
2017-06-27T10:30:16.062Z,20.66
2017-06-27T10:31:16.044Z,20.72
2017-06-27T10:32:16.012Z,20.87
2017-06-27T10:33:15.995Z,20.83
2017-06-27T10:34:15.974Z,20.94
2017-06-27T10:35:15.963Z,21
2017-06-27T10:36:15.939Z,21
2017-06-27T10:37:15.932Z,21.03
2017-06-27T10:38:15.916Z,21.01
2017-06-27T10:39:15.889Z,20.88
2017-06-27T10:40:15.871Z,20.88
2017-06-27T10:41:15.870Z,20.87
2017-06-27T10:42:15.549Z,20.82
2017-06-27T10:43:16.025Z,20.91
2017-06-27T10:44:15.819Z,20.85
2017-06-27T10:45:15.798Z,20.87
2017-06-27T10:46:15.792Z,20.87
2017-06-27T10:47:15.779Z,20.85
2017-06-27T10:48:15.750Z,20.83
2017-06-27T10:49:15.723Z,20.85
2017-06-27T10:50:15.456Z,20.85
2017-06-27T10:51:15.688Z,20.87
2017-06-27T10:52:15.371Z,20.9
2017-06-27T10:53:15.664Z,20.85
2017-06-27T10:54:15.641Z,20.88
2017-06-27T10:55:15.632Z,20.83
2017-06-27T10:56:15.605Z,20.9
2017-06-27T10:57:15.581Z,20.93
2017-06-27T10:58:15.578Z,20.87
2017-06-27T10:59:15.246Z,20.82
2017-06-27T11:00:14.934Z,20.83
2017-06-27T11:01:15.520Z,20.88
2017-06-27T11:02:15.799Z,20.72
2017-06-27T11:03:15.480Z,20.72
2017-06-27T11:04:15.493Z,20.72
2017-06-27T11:05:15.148Z,20.64
2017-06-27T11:06:15.432Z,20.63
2017-06-27T11:07:15.427Z,20.71
2017-06-27T11:08:15.399Z,20.82
2017-06-27T11:09:15.444Z,20.83
2017-06-27T11:10:15.411Z,20.82
2017-06-27T11:11:15.339Z,20.81
2017-06-27T11:12:15.333Z,20.83
2017-06-27T11:13:15.316Z,20.85
2017-06-27T11:14:15.300Z,20.75
2017-06-27T11:15:15.328Z,20.66
2017-06-27T11:16:15.313Z,20.64
2017-06-27T11:17:15.247Z,20.57
2017-06-27T11:18:14.921Z,20.66
2017-06-27T11:19:15.223Z,20.61
2017-06-27T11:20:15.406Z,20.61
2017-06-27T11:21:14.878Z,20.57
2017-06-27T11:22:14.851Z,20.61
2017-06-27T11:23:15.134Z,20.61
2017-06-27T11:24:15.119Z,20.71
2017-06-27T11:25:14.800Z,20.68
2017-06-27T11:26:15.082Z,20.73
2017-06-27T11:27:15.062Z,20.69
2017-06-27T11:28:15.048Z,20.73
2017-06-27T11:29:15.027Z,20.87
2017-06-27T11:30:15.056Z,20.97
2017-06-27T11:31:14.692Z,21.09
2017-06-27T11:32:14.973Z,21.08
2017-06-27T11:33:14.958Z,21.27
2017-06-27T11:34:14.985Z,21.18
2017-06-27T11:35:14.974Z,21.13
2017-06-27T11:36:14.902Z,21.18
2017-06-27T11:37:14.891Z,21.18
2017-06-27T11:38:14.866Z,21.19
2017-06-27T11:39:14.592Z,21.31
2017-06-27T11:40:14.847Z,21.31
2017-06-27T11:41:14.824Z,21.28
2017-06-27T11:42:14.216Z,21.18
2017-06-27T11:43:14.784Z,21.28
2017-06-27T11:44:14.465Z,21.26
2017-06-27T11:45:14.748Z,21.38
2017-06-27T11:46:14.731Z,21.37
2017-06-27T11:47:14.724Z,21.28
2017-06-27T11:48:14.697Z,21.26
2017-06-27T11:49:14.681Z,21.28
2017-06-27T11:50:14.660Z,21.3
2017-06-27T11:51:14.656Z,21.33
2017-06-27T11:52:14.677Z,21.45
2017-06-27T11:53:14.663Z,21.42
2017-06-27T11:54:14.590Z,21.42
2017-06-27T11:55:14.585Z,21.38
2017-06-27T11:56:14.591Z,21.42
2017-06-27T11:57:14.545Z,21.42
2017-06-27T11:58:14.630Z,21.37
2017-06-27T11:59:14.513Z,21.37
2017-06-27T12:00:14.499Z,21.36
2017-06-27T12:01:14.478Z,21.27
2017-06-27T12:02:14.514Z,21.26
2017-06-27T12:03:14.739Z,21.26
2017-06-27T12:04:14.429Z,21.27
2017-06-27T12:05:14.407Z,21.26
2017-06-27T12:06:14.396Z,21.27
2017-06-27T12:07:14.471Z,21.36
2017-06-27T12:08:14.378Z,21.22
2017-06-27T12:09:14.343Z,21.28
2017-06-27T12:10:14.435Z,21.24
2017-06-27T12:11:14.566Z,21.27
2017-06-27T12:12:14.347Z,21.28
2017-06-27T12:13:14.276Z,21.3
2017-06-27T12:14:14.356Z,21.22
2017-06-27T12:15:13.932Z,21.33
2017-06-27T12:16:14.224Z,21.46
2017-06-27T12:17:14.209Z,21.55
2017-06-27T12:18:14.183Z,21.64
2017-06-27T12:20:14.158Z,21.63
2017-06-27T12:21:14.348Z,21.66
2017-06-27T12:22:14.127Z,21.66
2017-06-27T12:23:14.106Z,21.63
2017-06-27T12:24:14.084Z,21.61
2017-06-27T12:25:14.077Z,21.52
2017-06-27T12:26:15.404Z,21.51
2017-06-27T12:27:14.048Z,21.46
2017-06-27T12:28:14.514Z,21.53
2017-06-27T12:29:13.698Z,21.4
2017-06-27T12:30:14.031Z,21.34
2017-06-27T12:31:14.170Z,21.33
2017-06-27T12:32:13.947Z,21.43
2017-06-27T12:33:13.931Z,21.46
2017-06-27T12:34:14.521Z,21.43
2017-06-27T12:35:13.947Z,21.42
2017-06-27T12:36:13.876Z,21.52
2017-06-27T12:37:13.859Z,21.53
2017-06-27T12:38:13.839Z,21.38
2017-06-27T12:39:13.835Z,21.24
2017-06-27T12:40:13.809Z,21.34
2017-06-27T12:41:13.840Z,21.26
2017-06-27T12:42:13.775Z,21.33
2017-06-27T12:43:13.756Z,21.28
2017-06-27T12:44:13.735Z,21.36
2017-06-27T12:45:14.126Z,21.38
2017-06-27T12:46:13.711Z,21.38
2017-06-27T12:47:13.688Z,21.43
2017-06-27T12:48:13.664Z,21.36
2017-06-27T12:49:13.644Z,21.38
2017-06-27T12:50:13.631Z,21.4
2017-06-27T12:51:13.615Z,21.28
2017-06-27T12:52:14.645Z,21.26
2017-06-27T12:53:13.580Z,21.34
2017-06-27T12:54:13.560Z,21.3
2017-06-27T12:55:13.946Z,21.45
2017-06-27T12:56:13.973Z,21.45